Vliegveldwaarnemingen Nederland - (AUTO) METAR

Luchtvaartmeteorologische informatie voor operationeel gebruik en vluchtvoorbereiding is beschikbaar op www.luchtvaartmeteo.nl.

ZCZC
SA191355 EHFS     VLISSINGEN AWS   NLD   8 m.
METAR EHFS 191355Z AUTO 27021KT 9999 FEW038/// SCT048/// 20/14 Q1016
W///H///=

ZCZC
SA191425 EHKD     DE KOOY/DE KOOY   NLD   1 m.
METAR EHKD 191425Z AUTO 23017KT 190V270 9999 FEW021CB SCT022 BKN031
19/14 Q1014
WHT 24019KT 9999 SCT024 TEMPO SCT022CB SCT023=

ZCZC
SA191425 EHFD     F3-FB-1   NLD   50 m.
METAR EHFD 191425Z AUTO 24025KT 9999 FEW015/// SCT045/// 16/12 Q1011
W///H///=

ZCZC
SA191425 EHAM     AMSTERDAM/SCHIPHOL   NLD   -3 m.
METAR EHAM 191425Z 24016KT 200V280 9999 FEW033 21/12 Q1015 NOSIG=

ZCZC
SA191425 EHVL     VLIELAND   NLD   10 m.
METAR EHVL 191425Z AUTO 24020KT 9999 SCT018 BKN022 BKN025 19/14 Q1013
 WHT=

ZCZC
SA191425 EHJR     K13-A   NLD   37 m.
METAR EHJR 191425Z AUTO 25009KT //// // ///////// 17/13 Q1012 RE//
W18/H13=

ZCZC
SA191425 EHLW     LEEUWARDEN/LEEUWARDEN   NLD   1 m.
METAR EHLW 191425Z AUTO 24018KT 9999 FEW027CB SCT029 BKN038 19/13
Q1014
BLU 24016G27KT 9999 BKN030=

ZCZC
SA191425 EHDL     ARNHEM/DEELEN   NLD   48 m.
METAR EHDL 191425Z AUTO 25012KT 170V300 9999 BKN041 BKN049 BKN057
20/11 Q1016 BLU=

ZCZC
SA191425 EHGG     GRONINGEN/EELDE   NLD   5 m.
METAR EHGG 191425Z AUTO 25017KT 210V280 9999 NCD 22/11 Q1014 NOSIG=

ZCZC
SA191425 EHSC     LICHTEILAND GOEREE   NLD   22 m.
METAR EHSC 191425Z AUTO 24026KT 9999 ///////// 18/13 Q1015 W20/H19=

ZCZC
SA191425 EHSA     EURO PLATFORM   NLD   19 m.
METAR EHSA 191425Z AUTO 21026KT 9999 ///////// 18/13 Q1015 W17/H18=

ZCZC
SA191425 EHWO     WOENSDRECHT/WOENSDRECHT   NLD   19 m.
METAR EHWO 191425Z AUTO 23009KT 200V270 9999 TS FEW015CB SCT070
OVC075 17/13 Q1016 REDZ BLU=

ZCZC
SA191425 EHRD     ROTTERDAM/THE HAGUE AIRPORT   NLD   -5 m.
METAR EHRD 191425Z AUTO 23014KT 200V270 9999 FEW038 BKN042 BKN047
20/11 Q1015 NOSIG=

ZCZC
SA191425 EHGR     GILZE-RIJEN/GILZE-RIJEN   NLD   14 m.
METAR EHGR 191425Z AUTO 23009KT 180V280 9999 FEW051 BKN056 BKN061
21/10 Q1016 BLU=

ZCZC
SA191425 EHEH     EINDHOVEN/EINDHOVEN   NLD   22 m.
METAR EHEH 191425Z AUTO 23015G26KT 190V270 9999 FEW048 22/10 Q1016
BLU 23013KT 9999 SCT044 TEMPO 25015G26KT FEW030CB SCT040=

ZCZC
SA191425 EHVK     VOLKEL/VOLKEL   NLD   21 m.
METAR EHVK 191425Z AUTO 22012KT 200V260 9999 BKN042 BKN049 BKN053
22/11 Q1016
BLU 25015KT 9999 SCT045=

ZCZC
SA191425 EHBK     MAASTRICHT/MAASTRICHT-AACHEN   NLD   114 m.
METAR EHBK 191425Z AUTO 25010KT 200V300 9999 NCD 22/12 Q1017 NOSIG=

ZCZC
SA191425 EHFZ     F16-A   NLD   43 m.
METAR EHFZ 191425Z AUTO 24017KT 9999 FEW014 BKN016 BKN025 16/12 Q1012
W///H///=

ZCZC
SA191425 EHKV     K14-FA-1C   NLD   41 m.
METAR EHKV 191425Z AUTO 23012KT 9999 FEW019 17/13 Q1014 W///H///=

ZCZC
SA191425 EHMG     L9-FF-1   NLD   44 m.
METAR EHMG 191425Z AUTO 24020KT 9999 FEW016 SCT020 17/14 Q1014
W///H///=

ZCZC
SA191425 EHMA     AWG-1   NLD   40 m.
METAR EHMA 191425Z AUTO 24017KT //// // FEW015CB SCT045 17/14 Q1014
RE// W///H///=

ZCZC
SA191425 EHDV     D15-FA-1   NLD   42 m.
METAR EHDV 191425Z AUTO 25016KT 9999 NSC 16/12 Q1011 W///H///=

ZCZC
SA191425 EHAK     A12-CPP   NLD   48 m.
METAR EHAK 191425Z AUTO 25022KT 9999 FEW017/// 16/12 Q1010 W///H///=

ZCZC
SA191425 EHQE     HOORN-A   NLD   50 m.
METAR EHQE 191425Z AUTO 19022KT 9999 FEW018 SCT030 18/14 Q1014
W///H///=

ZCZC
SA191425 EHJA     J6-A   NLD   45 m.
METAR EHJA 191425Z AUTO 23017KT 9999 NSC 16/13 Q1012 W///H///=

ZCZC
SA191425 EHPG     P11-B   NLD   41 m.
METAR EHPG 191425Z AUTO 21026KT 180V240 9999 FEW018 18/14 Q1013
W///H///=

ZCZC
SA191425 EHHW     BUITENGAATS/BG-OHVS2      42 m.
METAR EHHW 191425Z AUTO 26020KT 210V290 //// // FEW017/// 18/12 Q1014
RE// W///H///=

19/08/2019 16.30 uur LT